METAR AND TAF INFORMATION
METAR FOR UATG
ADDS - METARS form results

(2121 UTC 26 March 2019)
Data provider http://aviationweather.gov/metar/data/
 
METAR text: UATG 262100Z 06002MPS 3100 BR NSC 01/01 Q1021 R14/CLRD70 TEMPO 1500 BR BKN005 RMK QFE767/1023
Conditions at: UATG (ATYRAU , KZ) observed 2100 UTC 26 March 2019
Temperature: 1.0°C (34°F)
Dewpoint: 1.0°C (34°F) [RH = 100%]
Pressure (altimeter): 30.15 inches Hg (1021.0 mb)
Winds: from the ENE (60 degrees) at 5 MPH (4 knots; 2.1 m/s)
Visibility: 1.93 miles (3.11 km)
Ceiling: at least 12,000 feet AGL
Clouds: sky clear below 12,000 feet AGL
Weather: BR  (mist)

METAR text: UATG 262030Z 06002MPS 4600 BR NSC 02/02 Q1021 R14/CLRD70 TEMPO 1500 BR BKN005 RMK QFE768/1024
Conditions at: UATG (ATYRAU , KZ) observed 2030 UTC 26 March 2019
Temperature: 2.0°C (36°F)
Dewpoint: 2.0°C (36°F) [RH = 100%]
Pressure (altimeter): 30.15 inches Hg (1021.0 mb)
Winds: from the ENE (60 degrees) at 5 MPH (4 knots; 2.1 m/s)
Visibility: 2.86 miles (4.60 km)
Ceiling: at least 12,000 feet AGL
Clouds: sky clear below 12,000 feet AGL
Weather: BR  (mist)

Forecast for: UATG (ATYRAU , KZ)
Text: TAF UATG 261702Z 2618/2718 VRB03MPS 3100 BR BKN011 TX11/2711Z TNM02/2704Z
Forecast period: 1800 UTC 26 March 2019 to 0500 UTC 27 March 2019
Forecast type: FROM: standard forecast or significant change
Winds: variable direction winds at 7 MPH (6 knots; 3.1 m/s)
Visibility: 1.93 miles (3.11 km)
Ceiling: 1100 feet AGL
Clouds: broken clouds at 1100 feet AGL
Weather: BR  (mist)
Text: TEMPO 2618/2704 0300 FZFG VV001
Forecast period: 1800 UTC 26 March 2019 to 0400 UTC 27 March 2019
Forecast type: TEMPORARY: The following changes expected for less than half the time period
Visibility: 0.19 miles (0.31 km)
Ceiling: indefinite ceiling with vertical visibility of 100 feet AGL
Clouds: obscured sky
Weather: FZFG  (freezing fog)
Text: BECMG 2705/2707 09008MPS 9999 NSW
Forecast period: 0500 to 1800 UTC 27 March 2019
Forecast type: BECOMING: Conditions expected to become as follows by 0700 UTC 27 March 2019
Winds: from the E (90 degrees) at 18 MPH (16 knots; 8.2 m/s)
Visibility: 6 or more miles 10+ km)
Ceiling: 1100 feet AGL
Clouds: broken clouds at 1100 feet AGL
Weather: NSW  (no significant weather)

 AIRPORT MAP

 RUNWAY INFORMATION

 AIRPORT FREQUENCIES
Type APP Name APP Frequency 123.7 MHZ
Type TWR Name TWR Frequency 118.1 MHZ

 AIRPORT NEAR NAVIGATION AIDS
Type VOR-DME Name Atyrau Frequency 112300 KHZ
Type NDB Name Atyrau Frequency 315 KHZ
Type NDB Name Atyrau Frequency 315 KHZ



2018 Air Astana Virtual Airline